createdAt,value
2017-04-12T00:00:08.835Z,10.03
2017-04-12T00:01:07.462Z,18.13
2017-04-12T00:02:06.432Z,12.25
2017-04-12T00:03:05.352Z,15.10
2017-04-12T00:04:03.963Z,13.45
2017-04-12T00:05:02.901Z,15.02
2017-04-12T00:06:01.868Z,20.85
2017-04-12T00:07:00.419Z,15.87
2017-04-12T00:07:59.369Z,18.62
2017-04-12T00:08:58.429Z,13.18
2017-04-12T00:09:56.983Z,21.62
2017-04-12T00:10:56.026Z,13.63
2017-04-12T00:11:55.004Z,26.57
2017-04-12T00:12:54.060Z,12.90
2017-04-12T00:13:52.993Z,14.88
2017-04-12T00:14:52.000Z,14.77
2017-04-12T00:15:51.033Z,15.85
2017-04-12T00:16:50.066Z,15.53
2017-04-12T00:17:49.086Z,24.00
2017-04-12T00:18:48.243Z,19.28
2017-04-12T00:19:47.594Z,16.83
2017-04-12T00:20:46.588Z,23.08
2017-04-12T00:21:46.033Z,19.43
2017-04-12T00:22:45.028Z,22.73
2017-04-12T00:23:44.062Z,23.27
2017-04-12T00:24:43.141Z,19.18
2017-04-12T00:25:42.092Z,18.92
2017-04-12T00:26:41.170Z,20.50
2017-04-12T00:27:40.478Z,27.62
2017-04-12T00:28:39.433Z,31.83
2017-04-12T00:29:38.458Z,19.90
2017-04-12T00:30:37.395Z,24.90
2017-04-12T00:31:36.359Z,16.78
2017-04-12T00:32:35.440Z,31.28
2017-04-12T00:33:34.364Z,25.83
2017-04-12T00:34:33.420Z,27.68
2017-04-12T00:35:32.385Z,25.88
2017-04-12T00:36:31.362Z,20.38
2017-04-12T00:37:30.371Z,24.77
2017-04-12T00:38:29.378Z,26.83
2017-04-12T00:39:27.951Z,33.28
2017-04-12T00:40:26.921Z,21.40
2017-04-12T00:41:25.852Z,26.23
2017-04-12T00:42:24.815Z,26.40
2017-04-12T00:43:23.744Z,21.33
2017-04-12T00:44:22.739Z,24.27
2017-04-12T00:45:21.640Z,27.57
2017-04-12T00:46:20.684Z,21.77
2017-04-12T00:47:19.655Z,24.17
2017-04-12T00:48:18.620Z,32.13
2017-04-12T00:49:17.572Z,21.87
2017-04-12T00:50:16.554Z,35.48
2017-04-12T00:51:15.578Z,24.15
2017-04-12T00:52:14.536Z,39.70
2017-04-12T00:53:13.483Z,25.77
2017-04-12T00:54:12.455Z,28.10
2017-04-12T00:55:11.414Z,42.27
2017-04-12T00:56:10.419Z,37.32
2017-04-12T00:57:09.400Z,28.17
2017-04-12T00:58:08.385Z,40.48
2017-04-12T00:59:07.345Z,26.20
2017-04-12T01:00:06.290Z,29.98
2017-04-12T01:01:05.281Z,30.05
2017-04-12T01:02:04.395Z,41.22
2017-04-12T01:03:03.266Z,26.68
2017-04-12T01:04:02.240Z,35.18
2017-04-12T01:05:01.299Z,31.53
2017-04-12T01:06:00.256Z,28.93
2017-04-12T01:06:59.221Z,30.65
2017-04-12T01:07:58.276Z,30.75
2017-04-12T01:08:57.348Z,30.53
2017-04-12T01:09:56.380Z,24.40
2017-04-12T01:10:55.375Z,22.08
2017-04-12T01:11:54.358Z,36.25
2017-04-12T01:12:53.349Z,25.40
2017-04-12T01:13:52.352Z,25.67
2017-04-12T01:14:51.319Z,30.25
2017-04-12T01:15:50.243Z,23.18
2017-04-12T01:16:48.824Z,29.97
2017-04-12T01:17:47.780Z,16.67
2017-04-12T01:18:46.776Z,24.07
2017-04-12T01:19:45.417Z,26.35
2017-04-12T01:20:44.385Z,19.10
2017-04-12T01:21:44.075Z,19.38
2017-04-12T01:22:43.096Z,20.52
2017-04-12T01:23:42.097Z,18.98
2017-04-12T01:24:41.052Z,27.70
2017-04-12T01:25:39.981Z,20.82
2017-04-12T01:26:38.956Z,21.70
2017-04-12T01:27:37.892Z,30.82
2017-04-12T01:28:36.947Z,24.82
2017-04-12T01:29:35.956Z,20.52
2017-04-12T01:30:34.569Z,25.58
2017-04-12T01:31:33.560Z,21.62
2017-04-12T01:32:32.527Z,21.35
2017-04-12T01:33:31.592Z,20.12
2017-04-12T01:34:30.567Z,21.70
2017-04-12T01:35:29.564Z,25.77
2017-04-12T01:36:28.546Z,25.00
2017-04-12T01:37:27.600Z,27.63
2017-04-12T01:38:26.599Z,18.58
2017-04-12T01:39:25.608Z,26.83
2017-04-12T01:40:24.570Z,27.25
2017-04-12T01:41:23.581Z,25.60
2017-04-12T01:42:22.606Z,28.42
2017-04-12T01:43:21.631Z,25.15
2017-04-12T01:44:20.188Z,21.03
2017-04-12T01:45:19.147Z,28.58
2017-04-12T01:46:18.151Z,28.58
2017-04-12T01:47:17.209Z,25.70
2017-04-12T01:48:16.160Z,27.72
2017-04-12T01:49:15.135Z,23.22
2017-04-12T01:50:14.135Z,23.88
2017-04-12T01:51:13.109Z,28.48
2017-04-12T01:52:12.019Z,34.88
2017-04-12T01:53:10.950Z,24.53
2017-04-12T01:54:09.923Z,23.62
2017-04-12T01:55:08.902Z,34.58
2017-04-12T01:56:07.888Z,23.83
2017-04-12T01:57:06.841Z,30.20
2017-04-12T01:58:05.764Z,27.03
2017-04-12T01:59:04.821Z,27.92
2017-04-12T02:00:03.790Z,28.95
2017-04-12T02:01:02.843Z,31.90
2017-04-12T02:02:01.767Z,22.03
2017-04-12T02:03:00.759Z,29.48
2017-04-12T02:03:59.717Z,19.02
2017-04-12T02:04:58.747Z,27.85
2017-04-12T02:05:57.715Z,29.05
2017-04-12T02:06:56.771Z,29.10
2017-04-12T02:07:55.755Z,25.38
2017-04-12T02:08:55.119Z,19.70
2017-04-12T02:09:54.055Z,42.78
2017-04-12T02:10:53.012Z,28.90
2017-04-12T02:11:52.074Z,23.42
2017-04-12T02:12:51.048Z,26.42
2017-04-12T02:13:50.055Z,19.75
2017-04-12T02:14:49.024Z,18.52
2017-04-12T02:15:48.020Z,21.63
2017-04-12T02:16:47.060Z,18.90
2017-04-12T02:17:45.999Z,19.22
2017-04-12T02:18:45.000Z,26.17
2017-04-12T02:19:43.940Z,32.90
2017-04-12T02:20:42.903Z,38.42
2017-04-12T02:21:41.887Z,20.27
2017-04-12T02:22:40.559Z,25.75
2017-04-12T02:23:39.555Z,49.08
2017-04-12T02:24:38.600Z,19.00
2017-04-12T02:25:37.628Z,21.77
2017-04-12T02:26:36.575Z,29.67
2017-04-12T02:27:35.655Z,26.53
2017-04-12T02:28:34.683Z,25.13
2017-04-12T02:29:33.615Z,24.57
2017-04-12T02:30:32.672Z,31.45
2017-04-12T02:31:32.011Z,28.67
2017-04-12T02:32:31.037Z,26.45
2017-04-12T02:33:29.983Z,24.87
2017-04-12T02:34:29.012Z,22.72
2017-04-12T02:35:27.984Z,21.55
2017-04-12T02:36:26.968Z,23.20
2017-04-12T02:37:25.983Z,22.58
2017-04-12T02:38:24.936Z,31.47
2017-04-12T02:39:23.869Z,19.85
2017-04-12T02:40:22.903Z,27.97
2017-04-12T02:41:21.911Z,22.35
2017-04-12T02:42:20.919Z,23.82
2017-04-12T02:43:19.885Z,20.07
2017-04-12T02:44:18.904Z,19.85
2017-04-12T02:45:17.923Z,29.50
2017-04-12T02:46:16.867Z,21.82
2017-04-12T02:47:15.824Z,18.62
2017-04-12T02:48:14.815Z,19.37
2017-04-12T02:49:13.775Z,20.62
2017-04-12T02:50:12.783Z,21.12
2017-04-12T02:51:11.740Z,19.17
2017-04-12T02:52:10.710Z,18.12
2017-04-12T02:53:09.675Z,18.75
2017-04-12T02:54:08.643Z,18.87
2017-04-12T02:55:07.619Z,22.05
2017-04-12T02:56:06.603Z,17.72
2017-04-12T02:57:05.595Z,15.22
2017-04-12T02:58:04.567Z,20.33
2017-04-12T02:59:03.509Z,23.32
2017-04-12T03:00:02.559Z,21.88
2017-04-12T03:01:01.535Z,32.35
2017-04-12T03:02:00.496Z,19.52
2017-04-12T03:02:59.531Z,18.07
2017-04-12T03:03:58.185Z,20.28
2017-04-12T03:04:57.243Z,20.00
2017-04-12T03:05:56.321Z,16.55
2017-04-12T03:06:55.042Z,16.48
2017-04-12T03:07:53.932Z,17.88
2017-04-12T03:08:52.951Z,28.48
2017-04-12T03:09:51.506Z,19.65
2017-04-12T03:10:50.513Z,19.05
2017-04-12T03:11:49.509Z,18.77
2017-04-12T03:12:48.091Z,17.25
2017-04-12T03:13:47.108Z,18.00
2017-04-12T03:14:46.072Z,15.93
2017-04-12T03:15:45.088Z,20.67
2017-04-12T03:16:44.038Z,20.13
2017-04-12T03:17:42.987Z,16.17
2017-04-12T03:18:41.963Z,14.58
2017-04-12T03:19:40.920Z,19.98
2017-04-12T03:20:40.284Z,22.30
2017-04-12T03:21:39.225Z,18.80
2017-04-12T03:22:38.144Z,25.52
2017-04-12T03:23:37.203Z,20.77
2017-04-12T03:24:36.148Z,18.73
2017-04-12T03:25:35.178Z,18.98
2017-04-12T03:26:34.155Z,25.40
2017-04-12T03:27:32.748Z,20.12
2017-04-12T03:28:31.704Z,19.88
2017-04-12T03:29:30.676Z,22.67
2017-04-12T03:30:29.684Z,24.43
2017-04-12T03:31:28.699Z,21.60
2017-04-12T03:32:27.699Z,20.28
2017-04-12T03:33:26.663Z,19.62
2017-04-12T03:34:25.647Z,20.17
2017-04-12T03:35:24.647Z,21.65
2017-04-12T03:36:23.624Z,25.70
2017-04-12T03:37:22.662Z,17.97
2017-04-12T03:38:21.575Z,17.70
2017-04-12T03:39:20.598Z,20.92
2017-04-12T03:40:19.560Z,26.13
2017-04-12T03:41:18.565Z,23.85
2017-04-12T03:42:17.591Z,19.80
2017-04-12T03:43:16.604Z,16.15
2017-04-12T03:44:15.148Z,15.47
2017-04-12T03:45:14.143Z,26.68
2017-04-12T03:46:13.118Z,18.90
2017-04-12T03:47:12.056Z,27.52
2017-04-12T03:48:11.071Z,32.15
2017-04-12T03:49:10.069Z,15.37
2017-04-12T03:50:08.986Z,23.42
2017-04-12T03:51:07.919Z,21.23
2017-04-12T03:52:06.876Z,16.75
2017-04-12T03:53:05.904Z,21.95
2017-04-12T03:54:04.905Z,22.20
2017-04-12T03:55:03.834Z,19.65
2017-04-12T03:56:02.840Z,30.02
2017-04-12T03:57:01.775Z,24.83
2017-04-12T03:58:00.712Z,30.78
2017-04-12T03:58:59.714Z,23.08
2017-04-12T03:59:58.643Z,25.70
2017-04-12T04:00:58.095Z,24.28
2017-04-12T04:01:57.418Z,33.32
2017-04-12T04:02:56.663Z,27.85
2017-04-12T04:03:55.627Z,24.75
2017-04-12T04:04:55.431Z,28.50
2017-04-12T04:05:54.393Z,25.67
2017-04-12T04:06:53.426Z,26.72
2017-04-12T04:07:52.368Z,24.33
2017-04-12T04:08:51.348Z,19.67
2017-04-12T04:09:50.325Z,19.60
2017-04-12T04:10:49.816Z,30.30
2017-04-12T04:11:48.769Z,26.55
2017-04-12T04:12:47.901Z,31.30
2017-04-12T04:13:46.872Z,29.70
2017-04-12T04:14:45.839Z,23.65
2017-04-12T04:15:44.794Z,29.92
2017-04-12T04:16:46.086Z,22.98
2017-04-12T04:17:45.030Z,24.45
2017-04-12T04:18:43.992Z,26.18
2017-04-12T04:19:42.984Z,22.82
2017-04-12T04:20:41.959Z,27.02
2017-04-12T04:21:40.925Z,32.45
2017-04-12T04:22:40.199Z,26.28
2017-04-12T04:23:39.175Z,26.08
2017-04-12T04:24:38.065Z,26.38
2017-04-12T04:25:37.043Z,28.50
2017-04-12T04:26:36.051Z,27.63
2017-04-12T04:27:35.073Z,25.22
2017-04-12T04:28:34.064Z,22.62
2017-04-12T04:29:33.043Z,32.47
2017-04-12T04:30:31.958Z,31.22
2017-04-12T04:31:30.935Z,30.52
2017-04-12T04:32:29.923Z,19.88
2017-04-12T04:33:28.866Z,26.45
2017-04-12T04:34:27.863Z,24.15
2017-04-12T04:35:27.210Z,30.90
2017-04-12T04:36:26.155Z,25.57
2017-04-12T04:37:25.087Z,29.97
2017-04-12T04:38:24.095Z,24.52
2017-04-12T04:39:23.034Z,43.42
2017-04-12T04:40:22.014Z,24.78
2017-04-12T04:41:21.075Z,23.60
2017-04-12T04:42:20.031Z,25.10
2017-04-12T04:43:19.383Z,27.03
2017-04-12T04:44:18.392Z,22.92
2017-04-12T04:45:17.315Z,22.73
2017-04-12T04:46:16.327Z,22.55
2017-04-12T04:47:15.320Z,29.75
2017-04-12T04:48:14.311Z,27.83
2017-04-12T04:49:13.320Z,28.68
2017-04-12T04:50:12.671Z,27.35
2017-04-12T04:51:11.648Z,34.35
2017-04-12T04:52:10.668Z,27.67
2017-04-12T04:53:09.663Z,25.48
2017-04-12T04:54:08.619Z,26.98
2017-04-12T04:55:07.580Z,22.55
2017-04-12T04:56:06.548Z,23.88
2017-04-12T04:57:05.516Z,24.95
2017-04-12T04:58:04.911Z,20.60
2017-04-12T04:59:03.919Z,30.50
2017-04-12T05:00:02.888Z,33.20
2017-04-12T05:01:01.859Z,30.05
2017-04-12T05:02:00.836Z,30.57
2017-04-12T05:02:59.828Z,24.33
2017-04-12T05:03:58.819Z,42.17
2017-04-12T05:04:57.731Z,29.70
2017-04-12T05:05:56.788Z,25.18
2017-04-12T05:06:55.765Z,22.85
2017-04-12T05:07:54.703Z,26.47
2017-04-12T05:08:53.666Z,23.13
2017-04-12T05:09:52.688Z,31.38
2017-04-12T05:10:51.623Z,23.22
2017-04-12T05:11:50.588Z,32.62
2017-04-12T05:12:49.608Z,29.43
2017-04-12T05:13:48.615Z,32.35
2017-04-12T05:14:47.575Z,21.65
2017-04-12T05:15:46.551Z,34.25
2017-04-12T05:16:45.943Z,25.93
2017-04-12T05:17:44.918Z,24.02
2017-04-12T05:18:43.949Z,23.40
2017-04-12T05:19:42.960Z,35.90
2017-04-12T05:20:41.891Z,42.48
2017-04-12T05:21:40.887Z,22.93
2017-04-12T05:22:39.812Z,31.05
2017-04-12T05:23:38.737Z,31.80
2017-04-12T05:24:37.747Z,22.50
2017-04-12T05:25:36.694Z,25.73
2017-04-12T05:26:35.619Z,25.67
2017-04-12T05:27:34.649Z,21.00
2017-04-12T05:28:33.579Z,27.58
2017-04-12T05:29:32.856Z,33.77
2017-04-12T05:30:31.826Z,25.83
2017-04-12T05:31:30.847Z,32.73
2017-04-12T05:32:29.783Z,30.25
2017-04-12T05:33:28.754Z,24.23
2017-04-12T05:34:27.890Z,31.72
2017-04-12T05:35:27.321Z,28.48
2017-04-12T05:36:26.202Z,20.27
2017-04-12T05:37:25.203Z,27.63
2017-04-12T05:38:24.172Z,32.53
2017-04-12T05:39:23.148Z,31.75
2017-04-12T05:40:22.127Z,24.33
2017-04-12T05:41:21.071Z,22.77
2017-04-12T05:42:20.070Z,25.62
2017-04-12T05:43:19.039Z,22.68
2017-04-12T05:44:18.014Z,36.20
2017-04-12T05:45:16.969Z,27.50
2017-04-12T05:46:15.955Z,25.72
2017-04-12T05:47:14.939Z,26.78
2017-04-12T05:48:13.852Z,23.92
2017-04-12T05:49:12.836Z,24.82
2017-04-12T05:50:11.776Z,18.10
2017-04-12T05:51:10.751Z,28.92
2017-04-12T05:52:09.698Z,26.22
2017-04-12T05:53:08.682Z,21.08
2017-04-12T05:54:07.647Z,28.08
2017-04-12T05:55:06.607Z,22.02
2017-04-12T05:56:05.559Z,30.85
2017-04-12T05:57:04.551Z,30.83
2017-04-12T05:58:03.496Z,20.85
2017-04-12T05:59:02.427Z,26.40
2017-04-12T06:00:01.347Z,26.95
2017-04-12T06:01:00.342Z,18.45
2017-04-12T06:01:59.376Z,19.77
2017-04-12T06:02:58.355Z,27.13
2017-04-12T06:03:57.312Z,21.95
2017-04-12T06:04:56.268Z,33.62
2017-04-12T06:05:55.318Z,25.75
2017-04-12T06:06:54.698Z,18.58
2017-04-12T06:07:53.618Z,27.88
2017-04-12T06:08:52.608Z,28.78
2017-04-12T06:09:51.587Z,24.55
2017-04-12T06:10:50.543Z,23.63
2017-04-12T06:11:49.077Z,19.68
2017-04-12T06:12:48.110Z,24.48
2017-04-12T06:13:47.029Z,25.92
2017-04-12T06:14:46.035Z,22.70
2017-04-12T06:15:45.028Z,24.87
2017-04-12T06:16:43.964Z,30.30
2017-04-12T06:17:42.923Z,26.67
2017-04-12T06:18:41.923Z,24.82
2017-04-12T06:19:40.894Z,26.87
2017-04-12T06:20:39.888Z,24.25
2017-04-12T06:21:38.855Z,24.07
2017-04-12T06:22:37.816Z,17.97
2017-04-12T06:23:36.847Z,26.33
2017-04-12T06:24:35.807Z,22.67
2017-04-12T06:25:34.791Z,20.87
2017-04-12T06:26:33.800Z,21.32
2017-04-12T06:27:32.664Z,22.33
2017-04-12T06:28:31.668Z,39.38
2017-04-12T06:29:30.627Z,24.70
2017-04-12T06:30:29.568Z,33.28
2017-04-12T06:31:28.536Z,22.93
2017-04-12T06:32:27.528Z,28.12
2017-04-12T06:33:26.516Z,23.22
2017-04-12T06:34:25.554Z,29.10
2017-04-12T06:35:24.567Z,29.55
2017-04-12T06:36:23.783Z,21.50
2017-04-12T06:37:22.722Z,20.92
2017-04-12T06:38:21.718Z,23.62
2017-04-12T06:39:20.744Z,29.62
2017-04-12T06:40:19.764Z,19.47
2017-04-12T06:41:18.717Z,22.80
2017-04-12T06:42:17.670Z,25.70
2017-04-12T06:43:16.625Z,39.63
2017-04-12T06:44:15.599Z,32.22
2017-04-12T06:45:14.604Z,26.52
2017-04-12T06:46:13.523Z,22.33
2017-04-12T06:47:12.580Z,31.88
2017-04-12T06:48:11.646Z,26.97
2017-04-12T06:49:10.671Z,36.03
2017-04-12T06:50:09.648Z,28.63
2017-04-12T06:51:08.611Z,29.42
2017-04-12T06:52:07.570Z,33.00
2017-04-12T06:53:06.792Z,36.23
2017-04-12T06:54:05.728Z,23.15
2017-04-12T06:55:04.739Z,26.72
2017-04-12T06:56:03.780Z,29.27
2017-04-12T06:57:02.772Z,31.88
2017-04-12T06:58:01.723Z,27.08
2017-04-12T06:59:00.671Z,30.08
2017-04-12T06:59:59.595Z,24.77
2017-04-12T07:00:58.555Z,32.57
2017-04-12T07:01:57.539Z,35.07
2017-04-12T07:02:58.665Z,23.77
2017-04-12T07:03:57.637Z,37.75
2017-04-12T07:04:56.610Z,24.67
2017-04-12T07:05:55.239Z,22.25
2017-04-12T07:06:54.215Z,20.83
2017-04-12T07:07:53.199Z,34.52
2017-04-12T07:08:52.179Z,23.52
2017-04-12T07:09:51.455Z,23.37
2017-04-12T07:10:50.487Z,32.83
2017-04-12T07:11:49.412Z,23.38
2017-04-12T07:12:48.423Z,26.28
2017-04-12T07:13:47.451Z,25.65
2017-04-12T07:14:46.548Z,31.58
2017-04-12T07:15:45.568Z,32.68
2017-04-12T07:16:44.583Z,24.93
2017-04-12T07:17:43.512Z,30.27
2017-04-12T07:18:42.520Z,26.85
2017-04-12T07:19:41.530Z,27.00
2017-04-12T07:20:40.475Z,23.48
2017-04-12T07:21:39.436Z,26.88
2017-04-12T07:22:38.398Z,27.77
2017-04-12T07:23:37.375Z,23.10
2017-04-12T07:24:36.319Z,25.80
2017-04-12T07:25:35.381Z,29.35
2017-04-12T07:26:34.309Z,30.38
2017-04-12T07:27:33.282Z,27.62
2017-04-12T07:28:32.260Z,27.38
2017-04-12T07:29:31.379Z,24.77
2017-04-12T07:30:30.382Z,38.75
2017-04-12T07:31:29.696Z,27.98
2017-04-12T07:32:28.660Z,32.87
2017-04-12T07:33:27.632Z,35.90
2017-04-12T07:34:26.671Z,36.42
2017-04-12T07:35:25.650Z,21.68
2017-04-12T07:36:24.630Z,30.43
2017-04-12T07:37:23.674Z,20.20
2017-04-12T07:38:23.395Z,27.17
2017-04-12T07:39:22.279Z,25.97
2017-04-12T07:40:21.270Z,28.47
2017-04-12T07:41:20.282Z,29.77
2017-04-12T07:42:19.259Z,30.45
2017-04-12T07:43:18.337Z,27.45
2017-04-12T07:44:17.324Z,28.52
2017-04-12T07:45:16.277Z,25.67
2017-04-12T07:46:15.269Z,28.25
2017-04-12T07:47:14.280Z,29.17
2017-04-12T07:48:13.280Z,27.37
2017-04-12T07:49:12.392Z,22.25
2017-04-12T07:50:11.394Z,24.20
2017-04-12T07:51:10.465Z,38.55
2017-04-12T07:52:09.478Z,26.58
2017-04-12T07:53:08.524Z,31.52
2017-04-12T07:54:07.583Z,29.38
2017-04-12T07:55:06.579Z,30.32
2017-04-12T07:56:05.240Z,25.18
2017-04-12T07:57:04.148Z,24.92
2017-04-12T07:58:03.227Z,32.78
2017-04-12T07:59:02.187Z,30.13
2017-04-12T08:00:01.164Z,25.35
2017-04-12T08:01:00.126Z,29.55
2017-04-12T08:01:59.123Z,30.88
2017-04-12T08:02:58.074Z,25.27
2017-04-12T08:03:57.039Z,24.72
2017-04-12T08:04:56.057Z,27.05
2017-04-12T08:05:54.977Z,33.00
2017-04-12T08:06:54.003Z,27.62
2017-04-12T08:07:52.922Z,40.08
2017-04-12T08:08:51.873Z,50.80
2017-04-12T08:09:50.863Z,28.70
2017-04-12T08:10:49.836Z,40.08
2017-04-12T08:11:48.837Z,32.43
2017-04-12T08:12:47.811Z,31.15
2017-04-12T08:13:46.718Z,27.27
2017-04-12T08:14:45.727Z,29.53
2017-04-12T08:15:44.660Z,32.35
2017-04-12T08:16:43.698Z,36.08
2017-04-12T08:17:42.719Z,24.53
2017-04-12T08:18:41.670Z,27.93
2017-04-12T08:19:40.625Z,33.63
2017-04-12T08:20:39.246Z,32.35
2017-04-12T08:21:38.211Z,39.82
2017-04-12T08:22:37.240Z,27.18
2017-04-12T08:23:36.164Z,22.13
2017-04-12T08:24:35.211Z,26.40
2017-04-12T08:25:34.195Z,23.35
2017-04-12T08:26:32.803Z,33.88
2017-04-12T08:27:31.784Z,25.63
2017-04-12T08:28:30.743Z,28.35
2017-04-12T08:29:29.687Z,26.57
2017-04-12T08:30:28.682Z,35.68
2017-04-12T08:31:27.651Z,30.38
2017-04-12T08:32:26.584Z,29.23
2017-04-12T08:33:25.599Z,26.83
2017-04-12T08:34:24.575Z,26.13
2017-04-12T08:35:23.570Z,29.72
2017-04-12T08:36:22.563Z,21.10
2017-04-12T08:37:21.525Z,39.38
2017-04-12T08:38:20.466Z,28.68
2017-04-12T08:39:19.468Z,25.02
2017-04-12T08:40:18.454Z,25.12
2017-04-12T08:41:17.423Z,26.35
2017-04-12T08:42:16.011Z,27.83
2017-04-12T08:43:14.583Z,28.03
2017-04-12T08:44:13.953Z,28.43
2017-04-12T08:45:12.928Z,34.47
2017-04-12T08:46:11.881Z,29.77
2017-04-12T08:47:10.895Z,24.97
2017-04-12T08:48:09.926Z,22.27
2017-04-12T08:49:08.826Z,33.97
2017-04-12T08:50:08.146Z,22.17
2017-04-12T08:51:06.710Z,31.00
2017-04-12T08:52:05.650Z,25.37
2017-04-12T08:53:04.618Z,29.08
2017-04-12T08:54:03.639Z,28.62
2017-04-12T08:55:02.147Z,48.47
2017-04-12T08:56:01.147Z,22.45
2017-04-12T08:57:00.080Z,40.52
2017-04-12T08:57:59.067Z,28.85
2017-04-12T08:58:58.067Z,31.53
2017-04-12T08:59:57.050Z,22.93
2017-04-12T09:00:56.007Z,25.73
2017-04-12T09:01:54.991Z,24.02
2017-04-12T09:02:53.954Z,27.00
2017-04-12T09:03:52.958Z,27.80
2017-04-12T09:04:51.902Z,24.37
2017-04-12T09:05:50.874Z,20.97
2017-04-12T09:06:49.894Z,25.98
2017-04-12T09:07:48.866Z,33.80
2017-04-12T09:08:47.795Z,22.68
2017-04-12T09:09:46.420Z,27.40
2017-04-12T09:10:45.481Z,29.28
2017-04-12T09:11:44.119Z,24.07
2017-04-12T09:12:43.186Z,28.33
2017-04-12T09:13:42.305Z,28.52
2017-04-12T09:14:41.324Z,22.58
2017-04-12T09:15:40.291Z,29.45
2017-04-12T09:16:39.341Z,25.97
2017-04-12T09:17:38.435Z,20.37
2017-04-12T09:18:37.404Z,21.77
2017-04-12T09:19:36.426Z,22.95
2017-04-12T09:20:35.400Z,25.88
2017-04-12T09:21:34.451Z,23.05
2017-04-12T09:22:33.415Z,30.37
2017-04-12T09:23:32.407Z,26.53
2017-04-12T09:24:31.354Z,31.88
2017-04-12T09:25:30.317Z,25.33
2017-04-12T09:26:29.269Z,22.28
2017-04-12T09:27:28.255Z,23.03
2017-04-12T09:28:27.260Z,28.55
2017-04-12T09:29:26.197Z,21.03
2017-04-12T09:30:25.184Z,19.92
2017-04-12T09:31:24.085Z,20.35
2017-04-12T09:32:23.118Z,31.23
2017-04-12T09:33:22.119Z,30.58
2017-04-12T09:34:21.068Z,27.53
2017-04-12T09:35:20.037Z,27.05
2017-04-12T09:36:19.037Z,21.05
2017-04-12T09:37:18.036Z,23.93
2017-04-12T09:38:17.413Z,28.72
2017-04-12T09:39:16.392Z,20.67
2017-04-12T09:40:15.375Z,20.60
2017-04-12T09:41:14.424Z,20.27
2017-04-12T09:42:13.523Z,26.25
2017-04-12T09:43:12.471Z,17.85
2017-04-12T09:44:11.464Z,25.48
2017-04-12T09:45:10.423Z,21.87
2017-04-12T09:46:09.371Z,8.93
2017-04-12T09:47:08.316Z,14.57
2017-04-12T09:48:07.372Z,13.93
2017-04-12T09:49:06.310Z,16.78
2017-04-12T09:50:05.238Z,14.35
2017-04-12T09:51:04.139Z,8.22
2017-04-12T09:52:03.139Z,19.50
2017-04-12T09:53:02.107Z,13.57
2017-04-12T09:54:01.471Z,20.58
2017-04-12T09:55:00.471Z,16.60
2017-04-12T09:55:59.407Z,18.28
2017-04-12T09:56:58.467Z,13.40
2017-04-12T09:57:57.499Z,20.90
2017-04-12T09:58:56.503Z,11.13
2017-04-12T09:59:55.435Z,13.32
2017-04-12T10:00:54.731Z,11.48
2017-04-12T10:01:53.719Z,12.50
2017-04-12T10:02:53.032Z,13.20
2017-04-12T10:03:51.936Z,17.63
2017-04-12T10:04:50.953Z,12.22
2017-04-12T10:05:49.922Z,11.02
2017-04-12T10:06:48.942Z,19.78
2017-04-12T10:07:47.923Z,13.38
2017-04-12T10:08:46.938Z,10.55
2017-04-12T10:09:45.478Z,10.17
2017-04-12T10:10:44.474Z,14.18
2017-04-12T10:11:43.476Z,9.98
2017-04-12T10:12:42.417Z,12.95
2017-04-12T10:13:41.455Z,11.48
2017-04-12T10:14:40.439Z,8.88
2017-04-12T10:15:39.734Z,9.95
2017-04-12T10:16:38.715Z,11.07
2017-04-12T10:17:37.879Z,9.65
2017-04-12T10:18:36.914Z,13.75
2017-04-12T10:19:35.897Z,12.27
2017-04-12T10:20:34.830Z,14.37
2017-04-12T10:21:33.813Z,16.70
2017-04-12T10:22:32.853Z,11.43
2017-04-12T10:23:31.932Z,11.67
2017-04-12T10:24:30.879Z,13.78
2017-04-12T10:25:31.891Z,15.13
2017-04-12T10:26:30.830Z,11.98
2017-04-12T10:27:29.794Z,9.12
2017-04-12T10:28:28.779Z,14.75
2017-04-12T10:29:27.752Z,12.05
2017-04-12T10:30:26.779Z,13.95
2017-04-12T10:31:25.739Z,13.20
2017-04-12T10:32:24.799Z,10.98
2017-04-12T10:33:23.727Z,10.47
2017-04-12T10:34:22.710Z,16.32
2017-04-12T10:35:21.722Z,11.15
2017-04-12T10:36:20.360Z,9.62
2017-04-12T10:37:19.343Z,14.37
2017-04-12T10:38:18.315Z,11.83
2017-04-12T10:39:17.283Z,15.88
2017-04-12T10:40:16.286Z,11.07
2017-04-12T10:41:15.284Z,14.77
2017-04-12T10:42:14.267Z,11.37
2017-04-12T10:43:13.203Z,12.03
2017-04-12T10:44:12.255Z,9.95
2017-04-12T10:45:11.566Z,14.47
2017-04-12T10:46:10.522Z,14.87
2017-04-12T10:47:09.528Z,15.92
2017-04-12T10:48:08.499Z,10.02
2017-04-12T10:49:07.478Z,12.92
2017-04-12T10:50:06.414Z,13.93
2017-04-12T10:51:05.022Z,13.15
2017-04-12T10:52:03.981Z,13.22
2017-04-12T10:53:03.003Z,13.60
2017-04-12T10:54:01.975Z,10.47
2017-04-12T10:55:00.934Z,7.33
2017-04-12T10:55:59.916Z,11.23
2017-04-12T10:56:58.971Z,11.93
2017-04-12T10:57:57.982Z,8.77
2017-04-12T10:58:56.599Z,7.82
2017-04-12T10:59:55.609Z,9.15
2017-04-12T11:00:54.534Z,15.60
2017-04-12T11:01:53.479Z,12.83
2017-04-12T11:02:52.464Z,9.70
2017-04-12T11:03:51.460Z,10.85
2017-04-12T11:04:50.408Z,10.43
2017-04-12T11:05:49.436Z,8.53
2017-04-12T11:06:48.390Z,10.87
2017-04-12T11:07:47.300Z,9.72
2017-04-12T11:08:46.320Z,15.47
2017-04-12T11:09:45.275Z,15.45
2017-04-12T11:10:44.247Z,11.73
2017-04-12T11:11:43.200Z,9.38
2017-04-12T11:12:42.188Z,22.97
2017-04-12T11:13:41.179Z,12.72
2017-04-12T11:14:40.146Z,8.98
2017-04-12T11:15:38.738Z,14.53
2017-04-12T11:16:37.743Z,8.07
2017-04-12T11:17:36.763Z,9.30
2017-04-12T11:18:35.739Z,13.13
2017-04-12T11:19:35.162Z,8.78
2017-04-12T11:20:34.095Z,15.68
2017-04-12T11:21:33.474Z,15.02
2017-04-12T11:22:32.476Z,12.52
2017-04-12T11:23:31.658Z,11.55
2017-04-12T11:24:30.652Z,10.43
2017-04-12T11:25:29.628Z,16.05
2017-04-12T11:26:28.240Z,10.73
2017-04-12T11:27:27.266Z,11.28
2017-04-12T11:28:26.303Z,10.92
2017-04-12T11:29:25.294Z,9.62
2017-04-12T11:30:24.263Z,12.57
2017-04-12T11:31:23.258Z,10.10
2017-04-12T11:32:22.198Z,12.47
2017-04-12T11:33:21.251Z,9.72
2017-04-12T11:34:20.227Z,10.12
2017-04-12T11:35:19.176Z,10.17
2017-04-12T11:36:18.195Z,8.05
2017-04-12T11:37:17.187Z,13.65
2017-04-12T11:38:16.176Z,9.10
2017-04-12T11:39:15.165Z,12.78
2017-04-12T11:40:14.276Z,14.75
2017-04-12T11:41:13.224Z,10.97
2017-04-12T11:42:12.216Z,10.45
2017-04-12T11:43:11.198Z,7.45
2017-04-12T11:44:10.158Z,8.45
2017-04-12T11:45:08.899Z,7.67
2017-04-12T11:46:07.903Z,11.28
2017-04-12T11:47:06.840Z,8.70
2017-04-12T11:48:05.927Z,10.22
2017-04-12T11:49:04.567Z,8.98
2017-04-12T11:50:03.572Z,7.40
2017-04-12T11:51:02.575Z,10.72
2017-04-12T11:52:01.587Z,11.77
2017-04-12T11:53:00.554Z,12.87
2017-04-12T11:53:59.503Z,8.22
2017-04-12T11:54:58.439Z,9.00
2017-04-12T11:55:57.378Z,7.03
2017-04-12T11:56:56.311Z,9.92
2017-04-12T11:57:55.343Z,10.67
2017-04-12T11:58:54.281Z,9.97
2017-04-12T11:59:53.315Z,7.08
2017-04-12T12:00:52.268Z,10.17
2017-04-12T12:01:51.222Z,11.23
2017-04-12T12:02:50.192Z,8.95
2017-04-12T12:03:49.123Z,10.27
2017-04-12T12:04:48.124Z,9.22
2017-04-12T12:05:47.106Z,11.02
2017-04-12T12:06:46.079Z,11.40
2017-04-12T12:07:45.008Z,6.95
2017-04-12T12:08:44.043Z,13.43
2017-04-12T12:09:43.063Z,14.18
2017-04-12T12:10:42.087Z,7.80
2017-04-12T12:11:41.058Z,9.05
2017-04-12T12:12:40.038Z,11.28
2017-04-12T12:13:38.991Z,9.08
2017-04-12T12:14:38.001Z,9.72
2017-04-12T12:15:37.022Z,9.12
2017-04-12T12:16:35.955Z,11.77
2017-04-12T12:17:35.189Z,11.92
2017-04-12T12:18:34.214Z,16.47
2017-04-12T12:19:33.160Z,6.88
2017-04-12T12:20:32.119Z,9.37
2017-04-12T12:21:31.135Z,13.65
2017-04-12T12:22:30.216Z,12.85
2017-04-12T12:23:29.183Z,9.67
2017-04-12T12:24:28.111Z,12.05
2017-04-12T12:25:27.130Z,13.37
2017-04-12T12:26:26.465Z,8.60
2017-04-12T12:27:25.447Z,10.12
2017-04-12T12:28:24.311Z,7.40
2017-04-12T12:29:23.300Z,9.97
2017-04-12T12:30:22.274Z,8.62
2017-04-12T12:31:21.259Z,12.18
2017-04-12T12:32:20.205Z,12.77
2017-04-12T12:33:19.222Z,11.63
2017-04-12T12:34:18.167Z,11.28
2017-04-12T12:35:17.122Z,8.18
2017-04-12T12:36:16.136Z,9.23
2017-04-12T12:37:15.147Z,9.35
2017-04-12T12:38:14.114Z,8.30
2017-04-12T12:39:13.040Z,12.03
2017-04-12T12:40:12.010Z,12.38
2017-04-12T12:41:10.929Z,17.92